Aviation Digital Data Service (ADDS)

Output produced by METARs form (0556 UTC 29 May 2017)
found at http://www.aviationweather.gov/adds/metars/
 
UTAA 290500Z 30012KT 270V330 9999 NSC 25/13 Q1015 NOSIG
TAF UTAA 290430Z 2906/3006 30022KT 5000 SCT050CB 530009 
     TEMPO 2906/2914 32018G28KT 3000 BLDU 
     PROB30 
     TEMPO 2912/2918 VRB26KT -TSRA
       
UTAA 290500Z 30012KT 270V330 9999 NSC 25/13 Q1015 NOSIG
TAF UTAA 290430Z 2906/3006 30022KT 5000 SCT050CB 530009 
     TEMPO 2906/2914 32018G28KT 3000 BLDU 
     PROB30 
     TEMPO 2912/2918 VRB26KT -TSRA
       
UTAK 290500Z 35012KT CAVOK 24/08 Q1013 NOSIG
TAF UTAK 290430Z 2906/3006 04018G28KT 9999 SCT023 530007 
     TEMPO 2906/2912 33018G28KT BKN023 
     BECMG 2918/2920 06012KT 5000 SCT008 
     TEMPO 2921/3003 2000 BR BKN005
       
UTAM 290500Z 31014G24KT 6000 SKC 29/12 Q1011 NOSIG
TAF UTAM 290430Z 2905/3006 30016G26KT 3000 DRDU SCT050 530009 
     TEMPO 2905/2915 32022G32KT 0800 DS VV004 
     TEMPO 2915/2924 VRB03KT 2000 TSRA SCT050CB BKN050
       
UTAT 290500Z 35014KT CAVOK 25/12 Q1012 NOSIG
TAF UTAT 290448Z 2906/3006 36012G22KT 6000 SCT050CB BKN100 530005 
     TEMPO 2906/2912 34020G30KT 2000 DRDU 
     TEMPO 2912/2918 03016KT
       
UTAV 290500Z 30010KT 9999 FEW033CB BKN100 29/11 Q1008 NOSIG
TAF UTAV 290430Z 2906/3006 02014G24KT 3000 DRDU SCT030 SCT033CB 530009 
     TEMPO 2906/2913 30018G28KT 0700 DS VV003 570005 
     PROB40 
     TEMPO 2906/2913 VRB34KT TSRA 
     BECMG 2914/2916 34018G28KT 5000 SCT050
       
UTDD 290530Z 10007MPS 9999 NSC 31/10 Q1012 R09/CLRD// NOSIG RMK QFE691/0921
TAF UTDD 290300Z 2904/2916 VRB02MPS 6000 SCT060CB BKN100 
     TEMPO 2904/2907 09006MPS 
     TEMPO 2907/2916 VRB08MPS TS
       
UTDK 290530Z VRB02MPS 9999 NSC 35/07 Q1011 R01/09//70 RMK QFE701/0935
TAF UTDK 290300Z 2904/2913 VRB02MPS 6000 FEW066CB BKN100 
     TEMPO 2904/2913 21007MPS 
     PROB40 
     TEMPO 2904/2913 TS
       
UTDL 290530Z 07009G14MPS 9999 FEW230 29/10 Q1010 88CLRD70 NOSIG RMK QFE719/0958
TAF UTDL 290300Z 2904/2913 07008MPS 9999 NSC 
     TEMPO 2906/2910 07007G12MPS 
     TEMPO 2910/2913 23005MPS FEW060CB
       
UTDT 290530Z 04004MPS 350V080 9999 NSC 36/06 Q1009 35CLRD70 RMK QFE717/0956
TAF UTDT 290300Z 2904/2913 VRB02MPS 6000 SCT066CB BKN100 
     TEMPO 2904/2913 21007MPS 
     PROB40 
     TEMPO 2904/2913 TS
       
UTFF 290500Z 32003KT 280V350 9999 NSC 29/09 Q1012 R18/CLRD70
TAF UTFF 290300Z 2904/2913 32010KT 9999 FEW060CB 
     TEMPO 2906/2910 27014G24KT 7000 SCT060CB BKN100
       
UTFN 290530Z 06006KT 360V140 9999 NSC 32/05 Q1011 R28/CLRD70 NOSIG
TAF UTFN 290500Z 2906/3006 12010KT 9999 FEW050CB 
     TEMPO 2906/2913 24010G20KT 5000 -DS SCT050CB 
     TEMPO 2913/2924 VRB14G24KT -TSRA BKN050CB
       
UTNN 290530Z 30012KT CAVOK 25/10 Q1012 R33/CLRD60 NOSIG
TAF UTNN 290500Z 2906/3006 36010G20KT CAVOK 
     TEMPO 2906/2914 32019G29KT SCT040CB SCT100
       
UTNU 290530Z 32010KT CAVOK 26/12 Q1011 R31/CLRD70 NOSIG
TAF UTNU 290502Z 2906/3006 33016G26KT 8000 NSC 
     TEMPO 2906/2912 35022G32KT 4000 DU BKN050CB BKN100
       
UTSA 290530Z 29012KT 9999 NSC 29/09 Q1009 R07/CLRD70 NOSIG
TAF COR UTSA 290501Z 2906/3006 VRB05KT 7000 FEW050CB BKN100 TX35/2910Z 
     TEMPO 2906/2918 28016G26KT 2000 TSRA DS FEW006 BKN030CB OVC100
       
UTSB 290530Z 32012KT 6000 SCT050CB 29/11 Q1008 R01/CLRD70 NOSIG
TAF UTSB 290500Z 2906/3006 36010KT 7000 FEW050CB BKN100 TX35/2910Z 
     TEMPO 2906/2918 30016G26KT 2000 TSRA DS FEW007 BKN030CB OVC100
       
UTSK 290530Z 24012KT CAVOK 32/04 Q1008 R16/CLRD70
TAF AMD UTSK 290406Z 2904/2913 31010G20KT CAVOK TX39/2909Z 
     TEMPO 2904/2913 27020G30KT 1500 DS VV010
       
UTSS 290530Z 14008KT 110V170 9999 FEW065CB 33/06 Q1009 R09/70D NOSIG
TAF AMD UTSS 290518Z 2906/3006 29010G20KT 9999 NSC 
     TEMPO 2906/2914 VRB20G30KT 1500 TSRA DS BKN008 BKN040CB
       
UTST 290530Z 10004KT 050V140 CAVOK 36/06 Q1008 R88/CLRD70 NOSIG
TAF UTST 290500Z 2906/3006 26010G20KT 6000 NSC TX42/2911Z 
     TEMPO 2909/2918 24019G29KT 2000 DS SCT066CB
       
UTTT 290530Z 15010KT CAVOK 35/13 Q1006 R08R/CLRD70 NOSIG
TAF UTTT 290500Z 2906/3006 26012KT 7000 FEW060CB SCT100 TX38/2910Z 
     TEMPO 2906/2918 VRB25G35KT 3000 -TSRA -DS SCT050CB BKN100
       
UTAT 290500Z 35014KT CAVOK 25/12 Q1012 NOSIG
TAF UTAT 290448Z 2906/3006 36012G22KT 6000 SCT050CB BKN100 530005 
     TEMPO 2906/2912 34020G30KT 2000 DRDU 
     TEMPO 2912/2918 03016KT
       
UTAM 290500Z 31014G24KT 6000 SKC 29/12 Q1011 NOSIG
TAF UTAM 290430Z 2905/3006 30016G26KT 3000 DRDU SCT050 530009 
     TEMPO 2905/2915 32022G32KT 0800 DS VV004 
     TEMPO 2915/2924 VRB03KT 2000 TSRA SCT050CB BKN050
       
UTAV 290500Z 30010KT 9999 FEW033CB BKN100 29/11 Q1008 NOSIG
TAF UTAV 290430Z 2906/3006 02014G24KT 3000 DRDU SCT030 SCT033CB 530009 
     TEMPO 2906/2913 30018G28KT 0700 DS VV003 570005 
     PROB40 
     TEMPO 2906/2913 VRB34KT TSRA 
     BECMG 2914/2916 34018G28KT 5000 SCT050
       
UTAK 290500Z 35012KT CAVOK 24/08 Q1013 NOSIG
TAF UTAK 290430Z 2906/3006 04018G28KT 9999 SCT023 530007 
     TEMPO 2906/2912 33018G28KT BKN023 
     BECMG 2918/2920 06012KT 5000 SCT008 
     TEMPO 2921/3003 2000 BR BKN005